Harvard, Texas
Current Conditions -  °F | °C
As of 2:35 PM on Monday 26 Jan 2015 (Local Time) from KOSA Reporting Station
Clear Clear  
Wind Chill: 65°   Ceiling: Unl
Heat Index: 65°   Visibility: 10mi
Dew Point: 32°   Wind: 8mph
Humidity: 30%   Direction: 240°WSW
Pressure: 30.1"   Gusts: NA
Location:  32.9352°N, 94.9553°W
Report Text: KOSA 262035Z AUTO 24007KT 10SM CLR 18/00 A3010 RMK AO1 T01810000
Loading
Personal Weather Stations






























Interactive Weather Map New forecast layout! Learn more

10-Day Weather Forecast

Advertisements
Track Severe Weather on mobile